Westport, New York
Current Conditions -  °F | °C
As of 5:15 AM on Friday 21 Nov 2014 (Local Time) from K6B0 Reporting Station
Overcast Overcast  
Wind Chill: 24°   Ceiling: 4400
Heat Index: 24°   Visibility: 10mi
Dew Point: 14°   Wind: 0mph
Humidity: 65%   Direction: NA
Pressure: 29.97"   Gusts: NA
Location:  44.18°N, 73.44°W
Report Text: K6B0 211015Z AUTO 00000KT 10SM BKN044 OVC050 M04/M10 A2997 RMK AO2 T10451102
Loading
Personal Weather Stations






























Interactive Weather Map New forecast layout! Learn more

10-Day Weather Forecast

Advertisements
Track Severe Weather on mobile